Terminal Aerodrome Forecast
Issued by NWS St Louis, MO

Home | Current Version | Previous Version | Text Only | Print | Product List | Glossary On
Versions: 1 2 3 4 5 6 7 8 9 10 11 12 13 14 15 16 17 18 19 20 21 22 23 24 25 26 27
000
FTUS43 KLSX 210500
TAFSTL
TAF
KSTL 210520Z 2106/2212 16008KT P6SM SCT150 BKN250
     FM211200 22008KT P6SM VCSH FEW060 SCT120
     FM211800 24008KT P6SM VCTS SCT060CB BKN120
      TEMPO 2120/2124 5SM -SHRA BKN050
     FM220300 29008KT P6SM SCT060 BKN100
     FM220600 32008KT P6SM SKC=

USA.gov is the U.S. government's official web portal to all federal, state and local government web resources and services.